createdAt,value
2018-10-05T00:03:07.427Z,101655.00
2018-10-05T00:09:12.698Z,101653.00
2018-10-05T00:15:16.327Z,101648.00
2018-10-05T00:21:20.050Z,101648.00
2018-10-05T00:27:23.474Z,101652.00
2018-10-05T00:33:27.715Z,101640.00
2018-10-05T00:39:32.042Z,101636.00
2018-10-05T00:45:36.477Z,101637.00
2018-10-05T00:51:39.959Z,101632.00
2018-10-05T00:57:44.967Z,101622.00
2018-10-05T01:03:48.636Z,101629.00
2018-10-05T01:09:52.391Z,101617.00
2018-10-05T01:15:55.769Z,101604.00
2018-10-05T01:21:59.294Z,101600.00
2018-10-05T01:28:02.704Z,101594.00
2018-10-05T01:34:06.442Z,101588.00
2018-10-05T01:40:10.466Z,101588.00
2018-10-05T01:46:14.263Z,101578.00
2018-10-05T01:52:17.606Z,101575.00
2018-10-05T01:58:21.345Z,101573.00
2018-10-05T02:04:25.068Z,101571.00
2018-10-05T02:10:28.514Z,101563.00
2018-10-05T02:16:32.217Z,101551.00
2018-10-05T02:22:35.861Z,101544.00
2018-10-05T02:28:39.413Z,101537.00
2018-10-05T02:34:43.087Z,101525.00
2018-10-05T02:40:47.106Z,101527.00
2018-10-05T02:46:50.500Z,101520.00
2018-10-05T02:52:54.022Z,101509.00
2018-10-05T02:58:57.678Z,101520.00
2018-10-05T03:05:01.146Z,101517.00
2018-10-05T03:11:04.983Z,101504.00
2018-10-05T03:17:08.840Z,101495.00
2018-10-05T03:23:13.056Z,101508.00
2018-10-05T03:29:16.575Z,101492.00
2018-10-05T03:35:20.201Z,101489.00
2018-10-05T03:41:24.180Z,101484.00
2018-10-05T03:47:28.980Z,101487.00
2018-10-05T03:53:32.750Z,101484.00
2018-10-05T03:59:36.573Z,101480.00
2018-10-05T04:05:40.268Z,101486.00
2018-10-05T04:11:43.910Z,101477.00
2018-10-05T04:17:47.410Z,101468.00
2018-10-05T04:23:51.236Z,101453.00
2018-10-05T04:29:55.402Z,101451.00
2018-10-05T04:35:58.825Z,101438.00
2018-10-05T04:42:02.495Z,101429.00
2018-10-05T04:48:06.794Z,101420.00
2018-10-05T04:54:10.511Z,101418.00
2018-10-05T05:00:14.279Z,101419.00
2018-10-05T05:06:17.779Z,101419.00
2018-10-05T05:12:21.448Z,101422.00
2018-10-05T05:18:24.756Z,101414.00
2018-10-05T05:24:28.468Z,101404.00
2018-10-05T05:30:32.353Z,101410.00
2018-10-05T05:36:35.917Z,101407.00
2018-10-05T05:42:39.637Z,101411.00
2018-10-05T05:48:44.306Z,101407.00
2018-10-05T05:54:48.644Z,101391.00
2018-10-05T06:00:52.170Z,101393.00
2018-10-05T06:06:55.877Z,101383.00
2018-10-05T06:13:00.068Z,101393.00
2018-10-05T06:19:03.481Z,101395.00
2018-10-05T06:25:08.495Z,101389.00
2018-10-05T06:31:12.981Z,101401.00
2018-10-05T06:37:16.814Z,101397.00
2018-10-05T06:43:21.047Z,101395.00
2018-10-05T06:49:25.731Z,101399.00
2018-10-05T06:55:29.293Z,101392.00
2018-10-05T07:01:33.155Z,101402.00
2018-10-05T07:07:37.441Z,101393.00
2018-10-05T07:13:41.103Z,101398.00
2018-10-05T07:19:44.597Z,101399.00
2018-10-05T07:25:48.065Z,101403.00
2018-10-05T07:31:51.593Z,101401.00
2018-10-05T07:37:55.333Z,101402.00
2018-10-05T07:43:58.684Z,101401.00
2018-10-05T07:50:03.121Z,101387.00
2018-10-05T07:56:07.426Z,101393.00
2018-10-05T08:02:10.957Z,101393.00
2018-10-05T08:08:14.673Z,101400.00
2018-10-05T08:14:18.402Z,101409.00
2018-10-05T08:20:22.397Z,101403.00
2018-10-05T08:26:25.956Z,101387.00
2018-10-05T08:32:29.570Z,101333.00
2018-10-05T08:38:34.592Z,101375.00
2018-10-05T08:44:38.939Z,101370.00
2018-10-05T08:50:42.359Z,101368.00
2018-10-05T08:56:45.847Z,101356.00
2018-10-05T09:02:49.364Z,101362.00
2018-10-05T09:08:53.207Z,101348.00
2018-10-05T09:14:56.902Z,101333.00
2018-10-05T09:21:00.581Z,101335.00
2018-10-05T09:27:04.157Z,101324.00
2018-10-05T09:33:07.693Z,101324.00
2018-10-05T09:39:11.694Z,101308.00
2018-10-05T09:45:15.157Z,101300.00
2018-10-05T09:51:19.878Z,101291.00
2018-10-05T09:57:24.110Z,101283.00
2018-10-05T10:03:34.393Z,101266.00
2018-10-05T10:09:38.036Z,101261.00
2018-10-05T10:15:41.694Z,101264.00
2018-10-05T10:21:46.086Z,101256.00
2018-10-05T10:27:50.686Z,101253.00
2018-10-05T10:33:54.648Z,101241.00
2018-10-05T10:39:58.419Z,101233.00
2018-10-05T10:46:02.172Z,101224.00
2018-10-05T10:52:06.235Z,101220.00
2018-10-05T10:58:09.727Z,101207.00
2018-10-05T11:04:13.393Z,101199.00
2018-10-05T11:10:16.992Z,101180.00
2018-10-05T11:16:20.947Z,101175.00
2018-10-05T11:22:24.618Z,101164.00
2018-10-05T11:28:28.321Z,101156.00
2018-10-05T11:34:31.698Z,101150.00
2018-10-05T11:40:36.250Z,101136.00
2018-10-05T11:46:39.789Z,101127.00
2018-10-05T11:52:43.374Z,101126.00
2018-10-05T11:58:46.941Z,101116.00
2018-10-05T12:04:50.650Z,101109.00
2018-10-05T12:10:54.237Z,101105.00
2018-10-05T12:16:57.821Z,101092.00
2018-10-05T12:23:01.306Z,101081.00
2018-10-05T12:29:04.891Z,101071.00
2018-10-05T12:35:08.326Z,101059.00
2018-10-05T12:41:18.862Z,101047.00
2018-10-05T12:47:22.398Z,101053.00
2018-10-05T12:53:25.925Z,101042.00
2018-10-05T12:59:29.865Z,101044.00
2018-10-05T13:05:33.987Z,101033.00
2018-10-05T13:11:38.751Z,101028.00
2018-10-05T13:17:43.194Z,101014.00
2018-10-05T13:23:46.850Z,101010.00
2018-10-05T13:29:51.226Z,101008.00
2018-10-05T13:35:55.413Z,101000.00
2018-10-05T13:41:59.871Z,100996.00
2018-10-05T13:48:03.623Z,100990.00
2018-10-05T13:54:07.142Z,100984.00
2018-10-05T14:00:10.940Z,100965.00
2018-10-05T14:06:14.945Z,100957.00
2018-10-05T14:12:18.675Z,100961.00
2018-10-05T14:18:22.078Z,100940.00
2018-10-05T14:24:25.734Z,100937.00
2018-10-05T14:30:29.383Z,100929.00
2018-10-05T14:36:33.442Z,100921.00
2018-10-05T14:42:37.025Z,100919.00
2018-10-05T14:48:40.277Z,100912.00
2018-10-05T14:54:44.553Z,100907.00
2018-10-05T15:00:48.000Z,100881.00
2018-10-05T15:06:51.848Z,100861.00
2018-10-05T15:12:55.874Z,100876.00
2018-10-05T15:19:00.669Z,100861.00
2018-10-05T15:25:04.990Z,100853.00
2018-10-05T15:31:08.619Z,100848.00
2018-10-05T15:37:12.304Z,100837.00
2018-10-05T15:43:15.748Z,100834.00
2018-10-05T15:49:19.370Z,100833.00
2018-10-05T15:55:23.497Z,100830.00
2018-10-05T16:01:27.222Z,100833.00
2018-10-05T16:07:30.641Z,100851.00
2018-10-05T16:13:34.020Z,100837.00
2018-10-05T16:19:39.117Z,100848.00
2018-10-05T16:25:42.874Z,100856.00
2018-10-05T16:31:46.491Z,100850.00
2018-10-05T16:37:50.236Z,100862.00
2018-10-05T16:43:53.685Z,100846.00
2018-10-05T16:49:57.171Z,100860.00
2018-10-05T16:56:00.637Z,100857.00
2018-10-05T17:02:04.387Z,100856.00
2018-10-05T17:08:07.815Z,100862.00
2018-10-05T17:14:11.236Z,100857.00
2018-10-05T17:20:14.913Z,100847.00
2018-10-05T17:26:18.658Z,100844.00
2018-10-05T17:32:22.045Z,100836.00
2018-10-05T17:38:25.524Z,100836.00
2018-10-05T17:44:29.043Z,100833.00
2018-10-05T17:50:32.522Z,100833.00
2018-10-05T17:56:36.517Z,100835.00
2018-10-05T18:02:40.028Z,100829.00
2018-10-05T18:08:43.403Z,100819.00
2018-10-05T18:14:47.765Z,100822.00
2018-10-05T18:20:51.603Z,100815.00
2018-10-05T18:26:55.900Z,100805.00
2018-10-05T18:33:00.554Z,100810.00
2018-10-05T18:39:07.613Z,100769.00
2018-10-05T18:45:11.427Z,100797.00
2018-10-05T18:51:15.185Z,100800.00
2018-10-05T18:57:19.910Z,100784.00
2018-10-05T19:03:23.436Z,100784.00
2018-10-05T19:09:26.868Z,100775.00
2018-10-05T19:15:30.868Z,100765.00
2018-10-05T19:21:35.297Z,100765.00
2018-10-05T19:27:39.202Z,100748.00
2018-10-05T19:33:43.575Z,100754.00
2018-10-05T19:39:47.652Z,100757.00
2018-10-05T19:45:51.499Z,100752.00
2018-10-05T19:51:55.687Z,100746.00
2018-10-05T19:57:59.426Z,100744.00
2018-10-05T20:04:03.352Z,100745.00
2018-10-05T20:10:07.147Z,100733.00
2018-10-05T20:16:12.697Z,100739.00
2018-10-05T20:22:16.625Z,100740.00
2018-10-05T20:28:20.462Z,100736.00
2018-10-05T20:34:24.137Z,100734.00
2018-10-05T20:40:27.784Z,100750.00
2018-10-05T20:46:31.193Z,100743.00
2018-10-05T20:52:35.429Z,100744.00
2018-10-05T20:58:39.055Z,100743.00
2018-10-05T21:04:42.675Z,100737.00
2018-10-05T21:10:46.155Z,100737.00
2018-10-05T21:16:49.925Z,100742.00
2018-10-05T21:22:53.640Z,100738.00
2018-10-05T21:28:57.596Z,100734.00
2018-10-05T21:35:01.233Z,100733.00
2018-10-05T21:41:04.973Z,100737.00
2018-10-05T21:47:09.849Z,100731.00
2018-10-05T21:53:13.698Z,100732.00
2018-10-05T21:59:17.370Z,100741.00
2018-10-05T22:05:21.512Z,100742.00
2018-10-05T22:11:24.884Z,100737.00
2018-10-05T22:17:28.586Z,100723.00
2018-10-05T22:23:32.109Z,100726.00
2018-10-05T22:29:36.286Z,100724.00
2018-10-05T22:35:39.814Z,100721.00
2018-10-05T22:41:43.218Z,100713.00
2018-10-05T22:47:47.279Z,100721.00
2018-10-05T22:53:51.668Z,100722.00
2018-10-05T22:59:55.385Z,100710.00
2018-10-05T23:05:59.210Z,100708.00
2018-10-05T23:12:03.185Z,100707.00
2018-10-05T23:18:07.095Z,100713.00
2018-10-05T23:24:10.889Z,100704.00
2018-10-05T23:30:14.310Z,100695.00
2018-10-05T23:36:18.012Z,100691.00
2018-10-05T23:42:21.553Z,100680.00
2018-10-05T23:48:26.274Z,100679.00
2018-10-05T23:54:29.702Z,100677.00
